Terminal Aerodrome Forecast
Issued by NWS Anchorage, AK

Home | Current Version | Previous Version | Text Only | Print | Product List | Glossary On
Versions: 1 2 3 4 5 6 7 8 9 10 11 12 13 14 15 16 17 18 19 20 21 22 23 24 25 26 27 28 29 30 31 32 33 34 35 36 37 38 39 40 41 42 43 44 45 46 47 48 49 50
000
FTAK31 PANC 220905 AAB
TAFANC
TAF AMD
PANC 220905Z 2209/2312 VRB04KT 3/4SM BR VV001
      TEMPO 2209/2211 5SM BR BKN006
     FM221100 VRB04KT 3SM BR VCSH BKN005 OVC015
      TEMPO 2211/2213 5SM -SN FEW015 BKN025
     FM221300 14009KT 2SM -SN BR FEW005 OVC015
     FM221800 22006KT 6SM -SN SCT010 OVC025
     FM230100 32008KT P6SM SCT015 BKN045=

USA.gov is the U.S. government's official web portal to all federal, state and local government web resources and services.